KFOD

Fort Dodge Regional Airport

Fort Dodge, Iowa, USA
METAR KFOD 230856Z AUTO 34005KT 10SM CLR 02/M02 A3031 RMK AO2 SLP296 T00171022 53014 FZRANO
Observed Flight Rules
Oct-23 @ 08:56 UTC (47 minutes ago) Visual Flight Rules
Wind Visibility Clouds
340° at 5 knots 10 miles
  • Clear skies
Temperatures Readings
Current 2°C / 36°F
Dewpoint -2°C / 28°F
Humidity 75%
Altimeter 30.31" Hg
Pressure 1029.6 hPa
Elevation 355
METAR KFOD 230856Z AUTO 34005KT 10SM CLR 02/M02 A3031 RMK AO2 SLP296 T00171022 53014 FZRANO
Observed Flight Rules
Oct-23 @ 08:56 UTC
(47 minutes ago)
VFR
Wind Visibility
340° at 5 knots 10 miles
Clouds
  • Clear skies
Temperature Dewpoint
2°C / 36°F -2°C / 28°F
Humidity Altimeter Pressure
75% 30.31" Hg 1029.6 hPa